Terminal Aerodrome Forecast
Issued by NWS

Home | Current Version | Previous Version | Text Only | Print | Product List | Glossary On
Versions: 1 2 3 4 5 6 7 8 9 10 11 12 13 14 15 16 17 18 19 20 21 22 23 24 25 26 27 28 29 30 31 32 33 34 35
592
FTUS44 KHGX 280520
TAFCXO
TAF
KCXO 280520Z 2806/2906 05006KT P6SM VCSH SCT030 BKN120
      TEMPO 2806/2809 SHRA
     FM281300 02004KT P6SM VCSH SCT015 BKN250 PROB30 2815/2818 SHRA
     FM281800 03006KT P6SM VCSH BKN035 OVC100 PROB30 2818/2822 TSRA
      BKN035CB
     FM290100 00000KT P6SM BKN150=

USA.gov is the U.S. government's official web portal to all federal, state and local government web resources and services.